createdAt,value
2018-11-29T00:00:31.560Z,10.87
2018-11-29T00:03:00.417Z,10.53
2018-11-29T00:05:35.204Z,11.93
2018-11-29T00:08:09.728Z,11.23
2018-11-29T00:10:38.882Z,11.63
2018-11-29T00:13:07.788Z,11.97
2018-11-29T00:15:37.015Z,11.90
2018-11-29T00:18:06.489Z,12.03
2018-11-29T00:20:35.811Z,11.13
2018-11-29T00:23:04.897Z,12.23
2018-11-29T00:25:33.672Z,12.40
2018-11-29T00:28:02.800Z,11.60
2018-11-29T00:30:32.015Z,11.77
2018-11-29T00:33:01.291Z,11.50
2018-11-29T00:35:30.819Z,12.43
2018-11-29T00:37:59.887Z,12.50
2018-11-29T00:40:28.887Z,11.80
2018-11-29T00:42:58.127Z,11.63
2018-11-29T00:45:27.316Z,12.37
2018-11-29T00:47:56.932Z,12.40
2018-11-29T00:50:26.159Z,11.67
2018-11-29T00:52:55.442Z,12.20
2018-11-29T00:55:24.821Z,12.23
2018-11-29T00:57:54.013Z,13.10
2018-11-29T01:00:24.772Z,14.87
2018-11-29T01:02:54.068Z,17.00
2018-11-29T01:05:23.371Z,19.37
2018-11-29T01:07:53.345Z,17.73
2018-11-29T01:10:23.031Z,18.70
2018-11-29T01:12:52.327Z,16.93
2018-11-29T01:15:22.562Z,17.10
2018-11-29T01:17:52.432Z,15.70
2018-11-29T01:20:21.676Z,15.53
2018-11-29T01:22:50.900Z,14.73
2018-11-29T01:25:19.755Z,13.83
2018-11-29T01:27:49.797Z,15.80
2018-11-29T01:30:20.106Z,15.07
2018-11-29T01:32:49.415Z,15.47
2018-11-29T01:35:20.177Z,14.83
2018-11-29T01:37:49.999Z,14.50
2018-11-29T01:40:22.178Z,14.23
2018-11-29T01:42:56.725Z,15.83
2018-11-29T01:45:26.368Z,14.77
2018-11-29T01:47:55.280Z,14.17
2018-11-29T01:50:24.405Z,15.37
2018-11-29T01:52:53.522Z,14.23
2018-11-29T01:55:22.785Z,14.87
2018-11-29T01:57:52.090Z,14.50
2018-11-29T02:00:21.351Z,14.13
2018-11-29T02:02:51.565Z,14.17
2018-11-29T02:05:21.060Z,14.53
2018-11-29T02:07:50.249Z,15.17
2018-11-29T02:10:24.856Z,13.70
2018-11-29T02:12:54.354Z,14.00
2018-11-29T02:15:23.670Z,14.40
2018-11-29T02:17:52.437Z,13.23
2018-11-29T02:20:21.731Z,13.80
2018-11-29T02:22:50.845Z,13.83
2018-11-29T02:25:20.433Z,13.57
2018-11-29T02:27:49.224Z,13.27
2018-11-29T02:30:19.927Z,14.33
2018-11-29T02:32:49.598Z,14.93
2018-11-29T02:35:18.876Z,14.27
2018-11-29T02:37:47.700Z,13.37
2018-11-29T02:40:17.787Z,13.93
2018-11-29T02:42:48.058Z,14.07
2018-11-29T02:45:18.497Z,13.90
2018-11-29T02:47:48.180Z,14.40
2018-11-29T02:50:17.453Z,14.13
2018-11-29T02:52:46.640Z,13.30
2018-11-29T02:55:15.699Z,13.87
2018-11-29T02:57:44.809Z,14.80
2018-11-29T03:00:17.974Z,14.03
2018-11-29T03:02:46.936Z,14.47
2018-11-29T03:05:16.450Z,14.97
2018-11-29T03:07:45.707Z,14.57
2018-11-29T03:10:15.267Z,13.87
2018-11-29T03:12:44.458Z,13.43
2018-11-29T03:15:14.933Z,13.50
2018-11-29T03:17:44.600Z,13.63
2018-11-29T03:20:13.863Z,13.80
2018-11-29T03:22:43.140Z,13.47
2018-11-29T03:25:14.332Z,14.30
2018-11-29T03:27:43.753Z,14.20
2018-11-29T03:30:14.985Z,13.93
2018-11-29T03:32:44.185Z,14.23
2018-11-29T03:35:14.659Z,14.70
2018-11-29T03:37:43.850Z,14.83
2018-11-29T03:40:15.918Z,14.47
2018-11-29T03:42:46.373Z,14.63
2018-11-29T03:45:16.257Z,13.67
2018-11-29T03:47:45.879Z,14.63
2018-11-29T03:50:17.047Z,13.77
2018-11-29T03:52:46.669Z,15.10
2018-11-29T03:55:16.034Z,14.17
2018-11-29T03:57:45.325Z,13.70
2018-11-29T04:00:16.114Z,13.63
2018-11-29T04:02:46.369Z,12.60
2018-11-29T04:05:15.792Z,12.77
2018-11-29T04:07:44.993Z,11.93
2018-11-29T04:10:15.407Z,12.73
2018-11-29T04:12:44.783Z,12.80
2018-11-29T04:15:14.906Z,11.30
2018-11-29T04:17:44.584Z,11.23
2018-11-29T04:20:15.941Z,10.77
2018-11-29T04:22:45.589Z,10.97
2018-11-29T04:25:15.348Z,12.13
2018-11-29T04:27:44.556Z,11.33
2018-11-29T04:30:16.714Z,11.00
2018-11-29T04:32:46.345Z,10.80
2018-11-29T04:35:15.641Z,10.03
2018-11-29T04:37:44.860Z,11.10
2018-11-29T04:40:15.922Z,11.07
2018-11-29T04:42:45.254Z,10.47
2018-11-29T04:45:16.469Z,11.23
2018-11-29T04:47:45.937Z,12.27
2018-11-29T04:50:16.318Z,13.37
2018-11-29T04:52:45.559Z,14.30
2018-11-29T04:55:14.657Z,12.00
2018-11-29T04:57:43.484Z,13.20
2018-11-29T05:00:14.684Z,11.73
2018-11-29T05:02:44.180Z,12.03
2018-11-29T05:05:13.846Z,12.00
2018-11-29T05:07:43.096Z,11.90
2018-11-29T05:10:16.798Z,11.93
2018-11-29T05:12:46.341Z,12.10
2018-11-29T05:15:15.307Z,12.93
2018-11-29T05:17:44.179Z,12.83
2018-11-29T05:20:13.362Z,13.50
2018-11-29T05:22:42.621Z,12.60
2018-11-29T05:25:11.933Z,12.77
2018-11-29T05:27:41.330Z,12.80
2018-11-29T05:30:12.030Z,13.63
2018-11-29T05:32:41.254Z,13.90
2018-11-29T05:35:11.731Z,13.37
2018-11-29T05:37:41.038Z,13.73
2018-11-29T05:40:11.375Z,15.67
2018-11-29T05:42:40.975Z,15.17
2018-11-29T05:45:10.295Z,14.40
2018-11-29T05:47:39.523Z,14.80
2018-11-29T05:50:10.890Z,15.87
2018-11-29T05:52:41.755Z,15.03
2018-11-29T05:55:11.702Z,15.43
2018-11-29T05:57:40.908Z,16.43
2018-11-29T06:00:11.655Z,16.63
2018-11-29T06:02:40.950Z,16.33
2018-11-29T06:05:11.182Z,13.83
2018-11-29T06:07:40.015Z,17.00
2018-11-29T06:10:09.118Z,15.67
2018-11-29T06:12:39.167Z,16.73
2018-11-29T06:15:09.301Z,17.33
2018-11-29T06:17:38.555Z,17.13
2018-11-29T06:20:08.815Z,17.37
2018-11-29T06:22:37.530Z,18.00
2018-11-29T06:25:06.462Z,17.23
2018-11-29T06:27:35.700Z,16.97
2018-11-29T06:30:10.123Z,15.97
2018-11-29T06:32:39.458Z,17.80
2018-11-29T06:35:08.757Z,18.20
2018-11-29T06:37:38.319Z,17.83
2018-11-29T06:40:11.810Z,16.93
2018-11-29T06:42:40.940Z,16.37
2018-11-29T06:45:14.864Z,16.27
2018-11-29T06:47:44.258Z,15.63
2018-11-29T06:50:17.593Z,14.40
2018-11-29T06:52:48.541Z,13.73
2018-11-29T06:55:22.712Z,15.97
2018-11-29T06:57:53.811Z,14.07
2018-11-29T07:00:31.353Z,14.57
2018-11-29T07:03:02.556Z,14.47
2018-11-29T07:05:33.632Z,14.17
2018-11-29T07:08:04.063Z,14.33
2018-11-29T07:10:34.837Z,15.73
2018-11-29T07:13:06.728Z,16.13
2018-11-29T07:15:37.555Z,14.40
2018-11-29T07:20:52.966Z,15.27
2018-11-29T07:23:23.357Z,15.27
2018-11-29T07:25:53.917Z,14.60
2018-11-29T07:28:23.848Z,13.77
2018-11-29T07:30:52.953Z,14.53
2018-11-29T07:33:22.538Z,14.93
2018-11-29T07:35:51.370Z,13.40
2018-11-29T07:38:21.104Z,11.53
2018-11-29T07:43:24.891Z,10.70
2018-11-29T07:45:54.531Z,9.80
2018-11-29T07:48:24.027Z,11.23
2018-11-29T07:50:52.779Z,11.23
2018-11-29T07:53:21.870Z,11.60
2018-11-29T07:55:50.727Z,11.23
2018-11-29T07:58:20.026Z,14.70
2018-11-29T08:00:49.351Z,12.33
2018-11-29T08:03:18.637Z,12.37
2018-11-29T08:05:48.087Z,12.07
2018-11-29T08:08:17.320Z,15.17
2018-11-29T08:10:46.669Z,13.83
2018-11-29T08:13:21.500Z,14.20
2018-11-29T08:15:50.780Z,14.77
2018-11-29T08:18:19.701Z,13.33
2018-11-29T08:20:48.986Z,14.10
2018-11-29T08:23:18.116Z,14.03
2018-11-29T08:25:47.664Z,14.53
2018-11-29T08:28:22.943Z,14.40
2018-11-29T08:30:54.813Z,14.80
2018-11-29T08:33:26.839Z,15.00
2018-11-29T08:35:58.794Z,15.47
2018-11-29T08:38:32.988Z,16.77
2018-11-29T08:41:02.270Z,15.53
2018-11-29T08:43:32.670Z,15.90
2018-11-29T08:46:26.439Z,14.67
2018-11-29T08:48:57.514Z,13.20
2018-11-29T08:51:27.295Z,13.93
2018-11-29T08:53:56.826Z,14.43
2018-11-29T08:56:26.063Z,14.73
2018-11-29T08:58:54.814Z,15.30
2018-11-29T09:01:23.563Z,15.20
2018-11-29T09:03:52.497Z,13.47
2018-11-29T09:06:21.715Z,15.07
2018-11-29T09:08:50.544Z,18.07
2018-11-29T09:11:19.640Z,19.37
2018-11-29T09:13:49.108Z,19.40
2018-11-29T09:16:17.993Z,18.97
2018-11-29T09:18:47.915Z,20.07
2018-11-29T09:21:17.361Z,19.33
2018-11-29T09:23:47.301Z,20.50
2018-11-29T09:26:16.640Z,19.90
2018-11-29T09:28:45.879Z,19.17
2018-11-29T09:31:15.186Z,19.27
2018-11-29T09:33:44.910Z,19.63
2018-11-29T09:36:14.705Z,20.93
2018-11-29T09:38:44.012Z,21.43
2018-11-29T09:41:13.347Z,20.13
2018-11-29T09:43:42.693Z,21.53
2018-11-29T09:46:11.842Z,21.67
2018-11-29T09:48:41.254Z,22.97
2018-11-29T09:51:10.449Z,21.40
2018-11-29T09:53:39.406Z,19.97
2018-11-29T09:56:08.625Z,19.93
2018-11-29T09:58:37.518Z,20.90
2018-11-29T10:01:06.733Z,18.57
2018-11-29T10:03:35.496Z,20.30
2018-11-29T10:06:04.896Z,19.67
2018-11-29T10:08:34.002Z,20.20
2018-11-29T10:11:03.090Z,20.20
2018-11-29T10:13:31.931Z,21.93
2018-11-29T10:16:01.121Z,21.17
2018-11-29T10:18:30.948Z,23.03
2018-11-29T10:20:59.946Z,22.00
2018-11-29T10:23:28.721Z,22.77
2018-11-29T10:25:57.594Z,22.90
2018-11-29T10:28:27.003Z,23.70
2018-11-29T10:30:57.812Z,22.77
2018-11-29T10:33:27.348Z,23.23
2018-11-29T10:35:59.508Z,23.13
2018-11-29T10:38:27.850Z,23.17
2018-11-29T10:40:57.063Z,21.63
2018-11-29T10:43:26.341Z,23.53
2018-11-29T10:45:55.467Z,21.40
2018-11-29T10:48:24.468Z,23.67
2018-11-29T10:50:53.741Z,24.87
2018-11-29T10:53:23.377Z,23.60
2018-11-29T10:55:52.573Z,23.27
2018-11-29T10:58:22.480Z,23.10
2018-11-29T11:00:58.865Z,22.23
2018-11-29T11:03:28.943Z,23.40
2018-11-29T11:06:04.174Z,22.57
2018-11-29T11:08:35.809Z,21.47
2018-11-29T11:11:08.235Z,22.50
2018-11-29T11:13:38.294Z,21.80
2018-11-29T11:16:07.957Z,22.03
2018-11-29T11:18:39.290Z,21.83
2018-11-29T11:21:08.172Z,23.93
2018-11-29T11:23:39.031Z,21.13
2018-11-29T11:26:10.350Z,22.33
2018-11-29T11:28:39.733Z,23.20
2018-11-29T11:31:10.371Z,23.33
2018-11-29T11:33:39.622Z,22.50
2018-11-29T11:36:09.636Z,23.93
2018-11-29T11:38:39.091Z,21.17
2018-11-29T11:41:10.991Z,22.03
2018-11-29T11:43:39.985Z,20.70
2018-11-29T11:46:09.159Z,21.77
2018-11-29T11:48:38.480Z,20.73
2018-11-29T11:51:21.655Z,19.87
2018-11-29T11:53:51.940Z,21.50
2018-11-29T11:56:28.073Z,21.20
2018-11-29T11:58:57.663Z,23.03
2018-11-29T12:01:27.374Z,21.17
2018-11-29T12:03:56.213Z,22.97
2018-11-29T12:06:25.259Z,22.17
2018-11-29T12:08:54.471Z,22.97
2018-11-29T12:11:23.934Z,23.53
2018-11-29T12:13:52.867Z,22.63
2018-11-29T12:16:21.919Z,22.70
2018-11-29T12:18:50.708Z,24.63
2018-11-29T12:21:19.595Z,22.53
2018-11-29T12:23:48.695Z,23.00
2018-11-29T12:26:17.541Z,23.13
2018-11-29T12:28:46.696Z,23.13
2018-11-29T12:31:16.023Z,20.50
2018-11-29T12:33:45.360Z,21.07
2018-11-29T12:36:15.391Z,20.20
2018-11-29T12:38:44.819Z,20.57
2018-11-29T12:41:14.119Z,19.97
2018-11-29T12:43:42.984Z,20.43
2018-11-29T12:46:11.716Z,17.60
2018-11-29T12:48:40.988Z,18.43
2018-11-29T12:51:09.908Z,18.60
2018-11-29T12:53:39.489Z,17.03
2018-11-29T12:56:08.608Z,19.83
2018-11-29T12:58:37.660Z,19.80
2018-11-29T13:01:06.871Z,19.83
2018-11-29T13:03:36.130Z,21.20
2018-11-29T13:06:05.862Z,20.27
2018-11-29T13:08:35.208Z,20.07
2018-11-29T13:11:04.734Z,20.70
2018-11-29T13:13:33.759Z,21.43
2018-11-29T13:16:02.851Z,22.37
2018-11-29T13:18:32.146Z,21.90
2018-11-29T13:21:01.824Z,23.73
2018-11-29T13:23:30.924Z,20.77
2018-11-29T13:25:59.695Z,22.40
2018-11-29T13:28:28.831Z,21.17
2018-11-29T13:30:57.502Z,21.80
2018-11-29T13:33:27.136Z,19.57
2018-11-29T13:35:56.347Z,20.97
2018-11-29T13:38:26.143Z,19.20
2018-11-29T13:40:55.294Z,18.87
2018-11-29T13:43:24.488Z,19.67
2018-11-29T13:45:54.320Z,18.97
2018-11-29T13:48:23.642Z,20.53
2018-11-29T13:50:53.358Z,19.07
2018-11-29T13:53:22.415Z,19.33
2018-11-29T13:55:51.510Z,19.57
2018-11-29T13:58:20.576Z,19.17
2018-11-29T14:00:50.144Z,20.30
2018-11-29T14:03:19.500Z,19.60
2018-11-29T14:05:49.450Z,18.93
2018-11-29T14:08:18.780Z,18.30
2018-11-29T14:10:47.574Z,18.70
2018-11-29T14:13:16.938Z,19.13
2018-11-29T14:15:47.686Z,19.77
2018-11-29T14:18:20.010Z,20.00
2018-11-29T14:20:48.918Z,19.43
2018-11-29T14:23:18.230Z,21.23
2018-11-29T14:25:47.347Z,16.77
2018-11-29T14:28:16.218Z,16.37
2018-11-29T14:30:44.979Z,17.83
2018-11-29T14:33:18.121Z,17.13
2018-11-29T14:35:48.442Z,17.70
2018-11-29T14:38:19.352Z,16.40
2018-11-29T14:40:48.864Z,17.47
2018-11-29T14:43:18.789Z,16.43
2018-11-29T14:45:47.795Z,15.17
2018-11-29T14:48:17.458Z,16.33
2018-11-29T14:50:47.711Z,15.03
2018-11-29T14:53:17.039Z,15.53
2018-11-29T14:55:46.591Z,15.93
2018-11-29T14:58:19.629Z,16.23
2018-11-29T15:00:45.163Z,15.10
2018-11-29T15:03:14.699Z,14.73
2018-11-29T15:05:44.623Z,15.50
2018-11-29T15:08:15.225Z,15.43
2018-11-29T15:10:44.407Z,15.70
2018-11-29T15:13:13.628Z,15.97
2018-11-29T15:15:43.336Z,16.43
2018-11-29T15:18:12.696Z,16.40
2018-11-29T15:20:43.617Z,16.90
2018-11-29T15:23:13.380Z,16.30
2018-11-29T15:25:42.472Z,15.83
2018-11-29T15:28:12.018Z,16.07
2018-11-29T15:30:41.238Z,16.43
2018-11-29T15:33:10.457Z,15.63
2018-11-29T15:35:40.081Z,16.83
2018-11-29T15:38:09.413Z,16.40
2018-11-29T15:40:38.153Z,17.67
2018-11-29T15:43:08.175Z,19.10
2018-11-29T15:45:36.917Z,19.57
2018-11-29T15:48:05.597Z,19.70
2018-11-29T15:50:34.578Z,20.07
2018-11-29T15:53:03.731Z,18.13
2018-11-29T15:55:33.587Z,16.03
2018-11-29T15:58:03.018Z,16.60
2018-11-29T16:00:31.911Z,15.53
2018-11-29T16:03:01.404Z,16.33
2018-11-29T16:05:30.179Z,15.27
2018-11-29T16:07:59.911Z,15.07
2018-11-29T16:10:30.053Z,13.87
2018-11-29T16:12:59.715Z,14.00
2018-11-29T16:15:28.487Z,13.77
2018-11-29T16:17:57.189Z,14.33
2018-11-29T16:20:35.284Z,13.90
2018-11-29T16:23:05.103Z,14.20
2018-11-29T16:25:34.490Z,14.47
2018-11-29T16:28:05.255Z,14.60
2018-11-29T16:30:35.347Z,14.27
2018-11-29T16:33:07.113Z,16.53
2018-11-29T16:35:36.007Z,15.07
2018-11-29T16:38:07.087Z,14.83
2018-11-29T16:40:36.825Z,14.83
2018-11-29T16:43:06.972Z,15.20
2018-11-29T16:45:36.875Z,14.77
2018-11-29T16:48:06.487Z,15.50
2018-11-29T16:50:36.219Z,14.43
2018-11-29T16:53:05.524Z,14.53
2018-11-29T16:55:34.709Z,15.10
2018-11-29T16:58:08.275Z,14.77
2018-11-29T17:00:37.587Z,15.50
2018-11-29T17:03:06.778Z,16.97
2018-11-29T17:05:36.206Z,17.20
2018-11-29T17:08:06.124Z,19.33
2018-11-29T17:10:35.309Z,17.00
2018-11-29T17:13:07.263Z,16.37
2018-11-29T17:15:36.168Z,16.97
2018-11-29T17:18:05.459Z,16.90
2018-11-29T17:20:34.769Z,16.90
2018-11-29T17:23:04.173Z,17.17
2018-11-29T17:25:33.408Z,16.50
2018-11-29T17:28:02.538Z,15.73
2018-11-29T17:30:32.170Z,17.17
2018-11-29T17:33:02.157Z,16.67
2018-11-29T17:35:31.216Z,17.07
2018-11-29T17:38:00.115Z,15.57
2018-11-29T17:40:29.117Z,16.10
2018-11-29T17:45:38.697Z,17.30
2018-11-29T17:48:10.937Z,17.33
2018-11-29T17:50:41.172Z,17.50
2018-11-29T17:53:09.915Z,17.57
2018-11-29T17:55:38.906Z,16.57
2018-11-29T17:58:09.981Z,16.73
2018-11-29T18:00:38.745Z,17.73
2018-11-29T18:03:08.786Z,16.90
2018-11-29T18:05:37.784Z,16.00
2018-11-29T18:08:06.913Z,17.13
2018-11-29T18:10:36.424Z,16.43
2018-11-29T18:13:09.000Z,16.97
2018-11-29T18:15:38.093Z,16.03
2018-11-29T18:18:07.371Z,16.83
2018-11-29T18:20:36.226Z,16.77
2018-11-29T18:23:05.774Z,16.03
2018-11-29T18:25:35.041Z,17.27
2018-11-29T18:28:03.813Z,15.50
2018-11-29T18:30:32.913Z,16.27
2018-11-29T18:33:01.641Z,16.23
2018-11-29T18:35:30.805Z,17.37
2018-11-29T18:37:59.799Z,17.77
2018-11-29T18:40:29.860Z,17.90
2018-11-29T18:43:03.791Z,17.17
2018-11-29T18:45:37.839Z,16.50
2018-11-29T18:48:07.462Z,17.53
2018-11-29T18:50:37.561Z,18.10
2018-11-29T18:53:06.573Z,16.87
2018-11-29T18:55:36.975Z,17.30
2018-11-29T18:58:06.691Z,16.87
2018-11-29T19:00:39.890Z,18.67
2018-11-29T19:03:09.197Z,18.77
2018-11-29T19:05:37.990Z,16.83
2018-11-29T19:08:09.499Z,18.00
2018-11-29T19:10:38.606Z,18.40
2018-11-29T19:13:12.138Z,17.53
2018-11-29T19:15:41.579Z,17.40
2018-11-29T19:18:13.168Z,17.20
2018-11-29T19:20:43.532Z,17.37
2018-11-29T19:23:12.311Z,16.77
2018-11-29T19:25:40.987Z,17.60
2018-11-29T19:28:09.725Z,17.33
2018-11-29T19:30:38.368Z,17.13
2018-11-29T19:33:17.786Z,17.80
2018-11-29T19:35:48.314Z,18.00
2018-11-29T19:38:17.393Z,17.37
2018-11-29T19:40:46.639Z,18.23
2018-11-29T19:43:16.399Z,17.93
2018-11-29T19:45:46.192Z,17.93
2018-11-29T19:48:15.529Z,18.90
2018-11-29T19:50:45.091Z,19.57
2018-11-29T19:53:17.870Z,18.10
2018-11-29T19:55:47.694Z,18.23
2018-11-29T19:58:17.181Z,17.93
2018-11-29T20:00:46.757Z,17.13
2018-11-29T20:03:15.757Z,17.20
2018-11-29T20:05:44.630Z,16.37
2018-11-29T20:08:13.933Z,17.03
2018-11-29T20:10:43.000Z,16.97
2018-11-29T20:13:14.151Z,16.93
2018-11-29T20:15:44.217Z,16.80
2018-11-29T20:18:13.423Z,17.63
2018-11-29T20:20:42.474Z,18.03
2018-11-29T20:23:13.119Z,17.77
2018-11-29T20:25:44.540Z,17.90
2018-11-29T20:28:13.758Z,17.27
2018-11-29T20:30:42.736Z,17.63
2018-11-29T20:33:12.841Z,17.37
2018-11-29T20:35:43.181Z,18.77
2018-11-29T20:38:12.086Z,18.43
2018-11-29T20:40:44.427Z,18.10
2018-11-29T20:43:14.200Z,18.53
2018-11-29T20:45:49.027Z,18.07
2018-11-29T20:48:20.347Z,16.80
2018-11-29T20:50:50.630Z,16.70
2018-11-29T20:53:25.124Z,17.63
2018-11-29T20:55:54.148Z,16.27
2018-11-29T20:58:22.959Z,30.27
2018-11-29T21:00:53.404Z,19.57
2018-11-29T21:03:22.771Z,18.00
2018-11-29T21:05:53.190Z,18.63
2018-11-29T21:08:22.395Z,16.33
2018-11-29T21:10:52.391Z,16.90
2018-11-29T21:13:21.899Z,16.13
2018-11-29T21:15:52.399Z,15.97
2018-11-29T21:18:23.188Z,16.90
2018-11-29T21:20:52.163Z,16.27
2018-11-29T21:23:20.927Z,16.13
2018-11-29T21:25:51.160Z,17.53
2018-11-29T21:28:21.171Z,16.70
2018-11-29T21:30:50.649Z,16.43
2018-11-29T21:33:19.812Z,16.47
2018-11-29T21:35:49.519Z,16.80
2018-11-29T21:38:20.249Z,16.20
2018-11-29T21:40:56.785Z,16.27
2018-11-29T21:43:25.811Z,16.23
2018-11-29T21:45:55.543Z,16.47
2018-11-29T21:48:24.684Z,16.00
2018-11-29T21:50:53.942Z,15.63
2018-11-29T21:53:23.092Z,15.50
2018-11-29T21:55:52.588Z,15.27
2018-11-29T21:58:21.649Z,15.67
2018-11-29T22:00:50.494Z,16.80
2018-11-29T22:03:19.418Z,14.97
2018-11-29T22:05:48.528Z,16.60
2018-11-29T22:08:17.822Z,14.50
2018-11-29T22:10:46.617Z,15.40
2018-11-29T22:13:15.853Z,14.90
2018-11-29T22:15:45.149Z,14.27
2018-11-29T22:18:18.633Z,14.67
2018-11-29T22:20:50.220Z,15.67
2018-11-29T22:23:19.302Z,14.83
2018-11-29T22:25:48.101Z,15.57
2018-11-29T22:28:17.180Z,16.87
2018-11-29T22:30:46.338Z,18.57
2018-11-29T22:33:15.958Z,18.90
2018-11-29T22:35:45.271Z,18.40
2018-11-29T22:38:14.509Z,18.87
2018-11-29T22:40:43.276Z,19.67
2018-11-29T22:43:15.376Z,21.57
2018-11-29T22:45:44.475Z,20.27
2018-11-29T22:48:13.716Z,19.53
2018-11-29T22:50:42.748Z,20.43
2018-11-29T22:53:11.832Z,18.43
2018-11-29T22:55:41.416Z,19.80
2018-11-29T22:58:10.690Z,18.70
2018-11-29T23:00:44.736Z,20.17
2018-11-29T23:03:13.435Z,18.30
2018-11-29T23:05:42.396Z,18.17
2018-11-29T23:08:11.677Z,19.97
2018-11-29T23:10:40.932Z,18.73
2018-11-29T23:13:10.401Z,19.57
2018-11-29T23:15:39.487Z,19.90
2018-11-29T23:18:08.661Z,19.23
2018-11-29T23:20:38.001Z,18.93
2018-11-29T23:23:08.636Z,18.53
2018-11-29T23:25:37.718Z,19.20
2018-11-29T23:28:07.338Z,19.03
2018-11-29T23:30:36.435Z,19.73
2018-11-29T23:33:05.643Z,19.17
2018-11-29T23:35:35.606Z,18.80
2018-11-29T23:38:05.092Z,19.53
2018-11-29T23:40:34.236Z,19.37
2018-11-29T23:43:03.304Z,19.33
2018-11-29T23:45:32.187Z,19.77
2018-11-29T23:48:00.917Z,20.43
2018-11-29T23:50:30.479Z,20.30
2018-11-29T23:52:59.904Z,18.73
2018-11-29T23:55:29.079Z,19.27
2018-11-29T23:57:58.230Z,19.40
